createdAt,value
2018-12-12T00:00:12.273Z,3
2018-12-12T00:01:21.765Z,3
2018-12-12T00:02:30.373Z,3
2018-12-12T00:03:39.681Z,3
2018-12-12T00:04:49.950Z,3
2018-12-12T00:05:58.057Z,3
2018-12-12T00:07:07.501Z,3
2018-12-12T00:08:16.542Z,3
2018-12-12T00:09:25.591Z,3
2018-12-12T00:10:34.816Z,3
2018-12-12T00:11:44.002Z,3
2018-12-12T00:12:53.267Z,3
2018-12-12T00:14:02.446Z,3
2018-12-12T00:15:11.682Z,3
2018-12-12T00:16:20.950Z,3
2018-12-12T00:17:30.034Z,3
2018-12-12T00:18:39.280Z,3
2018-12-12T00:19:48.425Z,3
2018-12-12T00:20:57.636Z,3
2018-12-12T00:22:06.959Z,3
2018-12-12T00:23:16.149Z,3
2018-12-12T00:24:25.300Z,3
2018-12-12T00:25:34.801Z,3
2018-12-12T00:26:43.843Z,3
2018-12-12T00:27:53.267Z,3
2018-12-12T00:29:02.495Z,3
2018-12-12T00:30:13.457Z,3
2018-12-12T00:31:21.296Z,3
2018-12-12T00:32:33.125Z,3.1
2018-12-12T00:33:42.265Z,3.1
2018-12-12T00:34:48.523Z,3.1
2018-12-12T00:35:58.103Z,3.1
2018-12-12T00:37:07.310Z,3.1
2018-12-12T00:38:16.675Z,3.1
2018-12-12T00:39:25.700Z,3.1
2018-12-12T00:40:36.198Z,3
2018-12-12T00:41:45.270Z,3
2018-12-12T00:42:54.457Z,3.1
2018-12-12T00:44:03.642Z,3.1
2018-12-12T00:45:12.914Z,3.1
2018-12-12T00:46:22.283Z,3.2
2018-12-12T00:47:31.396Z,3.1
2018-12-12T00:48:41.058Z,3.1
2018-12-12T00:49:51.087Z,3.2
2018-12-12T00:50:59.176Z,3.2
2018-12-12T00:52:08.576Z,3.1
2018-12-12T00:53:17.464Z,3.1
2018-12-12T00:54:26.662Z,3.1
2018-12-12T00:55:36.071Z,3.1
2018-12-12T00:56:44.816Z,3.1
2018-12-12T00:57:54.031Z,3.1
2018-12-12T00:59:03.315Z,3.1
2018-12-12T01:00:12.463Z,3.1
2018-12-12T01:01:21.951Z,3.1
2018-12-12T01:02:31.053Z,3.1
2018-12-12T01:03:40.133Z,3.2
2018-12-12T01:04:49.506Z,3.1
2018-12-12T01:06:00.320Z,3.1
2018-12-12T01:07:13.749Z,3.2
2018-12-12T01:08:24.266Z,3.2
2018-12-12T01:09:27.531Z,3.1
2018-12-12T01:10:36.377Z,3.1
2018-12-12T01:11:47.175Z,3.2
2018-12-12T01:12:54.497Z,3.2
2018-12-12T01:14:03.412Z,3.1
2018-12-12T01:15:12.338Z,3.2
2018-12-12T01:16:21.478Z,3.2
2018-12-12T01:17:30.698Z,3.2
2018-12-12T01:18:39.914Z,3.2
2018-12-12T01:19:49.109Z,3.2
2018-12-12T01:20:58.322Z,3.2
2018-12-12T01:22:07.591Z,3.2
2018-12-12T01:23:16.778Z,3.2
2018-12-12T01:24:26.005Z,3.2
2018-12-12T01:25:35.510Z,3.2
2018-12-12T01:26:44.446Z,3.2
2018-12-12T01:27:53.637Z,3.2
2018-12-12T01:29:02.843Z,3.2
2018-12-12T01:30:12.070Z,3.1
2018-12-12T01:31:21.275Z,3.1
2018-12-12T01:32:30.487Z,3.2
2018-12-12T01:33:39.744Z,3.2
2018-12-12T01:34:48.932Z,3.2
2018-12-12T01:35:58.149Z,3.2
2018-12-12T01:37:07.402Z,3.2
2018-12-12T01:38:16.585Z,3.2
2018-12-12T01:39:25.807Z,3.2
2018-12-12T01:40:35.027Z,3.2
2018-12-12T01:41:44.238Z,3.2
2018-12-12T01:42:53.454Z,3.2
2018-12-12T01:44:02.677Z,3.2
2018-12-12T01:45:11.998Z,3.2
2018-12-12T01:46:21.119Z,3.3
2018-12-12T01:47:30.679Z,3.2
2018-12-12T01:48:39.617Z,3.3
2018-12-12T01:49:48.839Z,3.3
2018-12-12T01:50:57.998Z,3.3
2018-12-12T01:52:07.220Z,3.3
2018-12-12T01:53:16.426Z,3.3
2018-12-12T01:54:25.706Z,3.3
2018-12-12T01:55:34.901Z,3.3
2018-12-12T01:56:44.156Z,3.3
2018-12-12T01:57:54.986Z,3.3
2018-12-12T01:59:04.197Z,3.3
2018-12-12T02:00:13.408Z,3.3
2018-12-12T02:01:22.647Z,3.3
2018-12-12T02:02:31.849Z,3.3
2018-12-12T02:03:41.097Z,3.3
2018-12-12T02:04:50.294Z,3.3
2018-12-12T02:05:59.548Z,3.3
2018-12-12T02:07:08.744Z,3.4
2018-12-12T02:08:17.958Z,3.4
2018-12-12T02:09:27.811Z,3.4
2018-12-12T02:10:36.544Z,3.4
2018-12-12T02:11:45.622Z,3.4
2018-12-12T02:12:54.834Z,3.3
2018-12-12T02:14:04.089Z,3.4
2018-12-12T02:15:13.531Z,3.4
2018-12-12T02:16:22.553Z,3.4
2018-12-12T02:17:31.708Z,3.4
2018-12-12T02:18:40.932Z,3.4
2018-12-12T02:19:50.149Z,3.4
2018-12-12T02:20:59.363Z,3.4
2018-12-12T02:22:08.593Z,3.4
2018-12-12T02:23:17.811Z,3.4
2018-12-12T02:24:27.028Z,3.4
2018-12-12T02:25:36.262Z,3.4
2018-12-12T02:26:45.479Z,3.4
2018-12-12T02:27:54.693Z,3.4
2018-12-12T02:29:03.915Z,3.4
2018-12-12T02:30:13.148Z,3.4
2018-12-12T02:31:22.375Z,3.4
2018-12-12T02:32:31.601Z,3.4
2018-12-12T02:33:40.914Z,3.4
2018-12-12T02:34:50.021Z,3.4
2018-12-12T02:35:59.248Z,3.4
2018-12-12T02:37:08.467Z,3.4
2018-12-12T02:38:17.894Z,3.4
2018-12-12T02:39:26.929Z,3.5
2018-12-12T02:40:36.140Z,3.5
2018-12-12T02:41:45.368Z,3.5
2018-12-12T02:42:54.578Z,3.5
2018-12-12T02:44:03.802Z,3.5
2018-12-12T02:45:13.056Z,3.5
2018-12-12T02:46:22.268Z,3.5
2018-12-12T02:47:31.547Z,3.5
2018-12-12T02:48:40.769Z,3.6
2018-12-12T02:49:49.922Z,3.6
2018-12-12T02:50:59.124Z,3.6
2018-12-12T02:52:08.350Z,3.5
2018-12-12T02:53:17.581Z,3.6
2018-12-12T02:54:26.876Z,3.6
2018-12-12T02:55:36.118Z,3.6
2018-12-12T02:56:45.267Z,3.6
2018-12-12T02:57:54.785Z,3.6
2018-12-12T02:59:03.768Z,3.6
2018-12-12T03:00:13.229Z,3.6
2018-12-12T03:01:29.047Z,3.6
2018-12-12T03:02:31.389Z,3.6
2018-12-12T03:03:40.641Z,3.6
2018-12-12T03:04:49.903Z,3.6
2018-12-12T03:05:59.039Z,3.6
2018-12-12T03:07:08.272Z,3.6
2018-12-12T03:08:17.482Z,3.6
2018-12-12T03:09:26.821Z,3.5
2018-12-12T03:10:35.936Z,3.6
2018-12-12T03:11:45.205Z,3.5
2018-12-12T03:12:54.404Z,3.6
2018-12-12T03:14:03.619Z,3.6
2018-12-12T03:15:12.852Z,3.6
2018-12-12T03:16:22.070Z,3.6
2018-12-12T03:17:31.301Z,3.6
2018-12-12T03:18:40.512Z,3.6
2018-12-12T03:19:49.742Z,3.6
2018-12-12T03:20:59.538Z,3.6
2018-12-12T03:22:08.197Z,3.6
2018-12-12T03:23:17.410Z,3.6
2018-12-12T03:24:26.661Z,3.6
2018-12-12T03:25:35.853Z,3.6
2018-12-12T03:26:45.080Z,3.6
2018-12-12T03:27:54.318Z,3.6
2018-12-12T03:29:03.537Z,3.6
2018-12-12T03:30:12.776Z,3.6
2018-12-12T03:31:23.774Z,3.6
2018-12-12T03:32:31.963Z,3.6
2018-12-12T03:33:41.875Z,3.6
2018-12-12T03:34:50.281Z,3.6
2018-12-12T03:35:59.715Z,3.6
2018-12-12T03:37:08.603Z,3.6
2018-12-12T03:38:17.957Z,3.6
2018-12-12T03:39:27.839Z,3.6
2018-12-12T03:40:36.821Z,3.7
2018-12-12T03:41:46.292Z,3.6
2018-12-12T03:42:55.162Z,3.6
2018-12-12T03:44:04.600Z,3.6
2018-12-12T03:45:13.153Z,3.6
2018-12-12T03:46:22.810Z,3.6
2018-12-12T03:47:31.632Z,3.6
2018-12-12T03:48:41.498Z,3.6
2018-12-12T03:49:49.971Z,3.6
2018-12-12T03:50:59.364Z,3.6
2018-12-12T03:52:08.547Z,3.6
2018-12-12T03:53:18.482Z,3.6
2018-12-12T03:54:27.116Z,3.6
2018-12-12T03:55:36.825Z,3.6
2018-12-12T03:56:45.593Z,3.7
2018-12-12T03:57:55.037Z,3.6
2018-12-12T03:59:04.367Z,3.7
2018-12-12T04:00:13.371Z,3.7
2018-12-12T04:01:22.541Z,3.7
2018-12-12T04:02:31.418Z,3.7
2018-12-12T04:03:41.627Z,3.7
2018-12-12T04:04:51.192Z,3.7
2018-12-12T04:06:00.306Z,3.6
2018-12-12T04:07:08.654Z,3.6
2018-12-12T04:08:17.788Z,3.6
2018-12-12T04:09:27.178Z,3.6
2018-12-12T04:10:37.807Z,3.6
2018-12-12T04:11:45.694Z,3.6
2018-12-12T04:12:54.803Z,3.6
2018-12-12T04:14:04.472Z,3.6
2018-12-12T04:15:14.521Z,3.6
2018-12-12T04:16:23.959Z,3.6
2018-12-12T04:17:33.213Z,3.6
2018-12-12T04:18:41.084Z,3.6
2018-12-12T04:19:50.078Z,3.6
2018-12-12T04:20:59.272Z,3.6
2018-12-12T04:22:08.397Z,3.6
2018-12-12T04:23:17.745Z,3.6
2018-12-12T04:24:27.403Z,3.6
2018-12-12T04:25:36.219Z,3.6
2018-12-12T04:26:45.460Z,3.6
2018-12-12T04:27:55.142Z,3.6
2018-12-12T04:29:04.444Z,3.6
2018-12-12T04:30:13.489Z,3.6
2018-12-12T04:31:22.832Z,3.6
2018-12-12T04:32:32.150Z,3.6
2018-12-12T04:33:40.906Z,3.6
2018-12-12T04:34:50.773Z,3.6
2018-12-12T04:35:58.965Z,3.6
2018-12-12T04:37:08.575Z,3.6
2018-12-12T04:38:17.512Z,3.6
2018-12-12T04:39:27.193Z,3.6
2018-12-12T04:40:36.429Z,3.6
2018-12-12T04:41:45.605Z,3.6
2018-12-12T04:42:55.481Z,3.5
2018-12-12T04:44:04.431Z,3.6
2018-12-12T04:45:13.064Z,3.5
2018-12-12T04:46:23.077Z,3.5
2018-12-12T04:47:31.522Z,3.4
2018-12-12T04:48:41.770Z,3.4
2018-12-12T04:49:50.302Z,3.5
2018-12-12T04:50:59.145Z,3.5
2018-12-12T04:52:08.469Z,3.4
2018-12-12T04:53:17.844Z,3.4
2018-12-12T04:54:27.342Z,3.4
2018-12-12T04:55:35.880Z,3.4
2018-12-12T04:56:45.758Z,3.4
2018-12-12T04:57:54.630Z,3.4
2018-12-12T04:59:04.288Z,3.4
2018-12-12T05:00:13.518Z,3.4
2018-12-12T05:01:22.250Z,3.4
2018-12-12T05:02:31.474Z,3.4
2018-12-12T05:03:41.073Z,3.5
2018-12-12T05:04:51.464Z,3.3
2018-12-12T05:05:58.838Z,3.3
2018-12-12T05:07:07.985Z,3.3
2018-12-12T05:08:18.017Z,3.5
2018-12-12T05:09:27.677Z,3.4
2018-12-12T05:10:35.795Z,3.4
2018-12-12T05:11:45.702Z,3.4
2018-12-12T05:12:54.820Z,3.4
2018-12-12T05:14:03.791Z,3.4
2018-12-12T05:15:13.272Z,3.3
2018-12-12T05:16:22.481Z,3.3
2018-12-12T05:17:31.596Z,3.3
2018-12-12T05:18:42.233Z,3.3
2018-12-12T05:19:50.450Z,3.3
2018-12-12T05:20:59.673Z,3.3
2018-12-12T05:22:08.079Z,3.3
2018-12-12T05:23:17.331Z,3.3
2018-12-12T05:24:27.258Z,3.3
2018-12-12T05:25:35.923Z,3.3
2018-12-12T05:26:44.505Z,3.3
2018-12-12T05:27:53.693Z,3.3
2018-12-12T05:29:03.335Z,3.3
2018-12-12T05:30:12.261Z,3.2
2018-12-12T05:31:23.479Z,3.2
2018-12-12T05:32:33.421Z,3.2
2018-12-12T05:33:40.123Z,3.2
2018-12-12T05:34:49.080Z,3.2
2018-12-12T05:35:58.235Z,3.1
2018-12-12T05:37:07.507Z,3.1
2018-12-12T05:38:17.375Z,3.1
2018-12-12T05:39:25.992Z,3.1
2018-12-12T05:40:35.354Z,3
2018-12-12T05:41:44.402Z,3
2018-12-12T05:42:53.625Z,3.1
2018-12-12T05:44:02.861Z,3.1
2018-12-12T05:45:12.136Z,3
2018-12-12T05:46:21.246Z,2.9
2018-12-12T05:47:30.456Z,2.9
2018-12-12T05:48:39.689Z,2.9
2018-12-12T05:49:49.020Z,2.8
2018-12-12T05:50:58.338Z,2.9
2018-12-12T05:52:07.345Z,2.9
2018-12-12T05:53:16.550Z,2.8
2018-12-12T05:54:25.804Z,2.8
2018-12-12T05:55:34.994Z,2.8
2018-12-12T05:56:44.184Z,2.8
2018-12-12T05:57:53.509Z,2.8
2018-12-12T05:59:02.623Z,2.8
2018-12-12T06:00:11.900Z,2.8
2018-12-12T06:01:21.075Z,2.8
2018-12-12T06:02:30.280Z,2.8
2018-12-12T06:03:39.454Z,2.8
2018-12-12T06:04:48.661Z,2.8
2018-12-12T06:05:57.878Z,2.8
2018-12-12T06:07:07.102Z,2.8
2018-12-12T06:08:16.313Z,2.8
2018-12-12T06:09:25.531Z,2.8
2018-12-12T06:10:34.748Z,2.8
2018-12-12T06:11:43.944Z,2.8
2018-12-12T06:12:53.161Z,2.9
2018-12-12T06:14:02.379Z,2.9
2018-12-12T06:15:11.598Z,2.8
2018-12-12T06:16:20.799Z,2.9
2018-12-12T06:17:30.019Z,2.8
2018-12-12T06:18:39.230Z,2.8
2018-12-12T06:19:48.436Z,2.8
2018-12-12T06:20:57.640Z,2.8
2018-12-12T06:22:06.857Z,2.8
2018-12-12T06:23:16.080Z,2.8
2018-12-12T06:24:25.302Z,2.8
2018-12-12T06:25:34.488Z,2.8
2018-12-12T06:26:43.687Z,2.9
2018-12-12T06:27:52.903Z,2.8
2018-12-12T06:29:02.118Z,2.8
2018-12-12T06:30:11.325Z,2.9
2018-12-12T06:31:20.551Z,2.9
2018-12-12T06:32:29.746Z,2.9
2018-12-12T06:33:38.969Z,2.9
2018-12-12T06:34:48.189Z,2.9
2018-12-12T06:35:57.405Z,2.9
2018-12-12T06:37:06.597Z,2.9
2018-12-12T06:38:15.815Z,2.9
2018-12-12T06:39:25.067Z,2.8
2018-12-12T06:40:34.241Z,2.9
2018-12-12T06:41:43.445Z,2.9
2018-12-12T06:42:52.648Z,2.9
2018-12-12T06:44:01.854Z,2.8
2018-12-12T06:45:11.158Z,2.9
2018-12-12T06:46:20.267Z,2.9
2018-12-12T06:47:29.490Z,2.9
2018-12-12T06:48:38.714Z,2.9
2018-12-12T06:49:48.148Z,2.8
2018-12-12T06:50:57.207Z,2.8
2018-12-12T06:52:06.400Z,2.8
2018-12-12T06:53:15.545Z,2.8
2018-12-12T06:54:24.762Z,2.8
2018-12-12T06:55:33.969Z,2.8
2018-12-12T06:56:43.195Z,2.8
2018-12-12T06:57:52.395Z,2.8
2018-12-12T06:59:01.603Z,2.8
2018-12-12T07:00:10.836Z,2.8
2018-12-12T07:01:20.036Z,2.8
2018-12-12T07:02:29.234Z,2.8
2018-12-12T07:03:38.447Z,2.8
2018-12-12T07:04:47.662Z,2.8
2018-12-12T07:05:56.938Z,2.8
2018-12-12T07:07:06.102Z,2.8
2018-12-12T07:08:15.293Z,2.8
2018-12-12T07:09:24.502Z,2.8
2018-12-12T07:10:33.712Z,2.8
2018-12-12T07:11:42.928Z,2.8
2018-12-12T07:12:52.121Z,2.8
2018-12-12T07:14:01.348Z,2.8
2018-12-12T07:15:10.539Z,2.8
2018-12-12T07:16:19.757Z,2.8
2018-12-12T07:17:28.976Z,2.8
2018-12-12T07:18:38.176Z,2.8
2018-12-12T07:19:47.397Z,2.8
2018-12-12T07:20:56.660Z,2.8
2018-12-12T07:22:05.842Z,2.8
2018-12-12T07:23:15.003Z,2.9
2018-12-12T07:24:24.226Z,2.9
2018-12-12T07:25:33.427Z,2.8
2018-12-12T07:26:42.628Z,2.9
2018-12-12T07:27:51.872Z,2.9
2018-12-12T07:29:01.071Z,2.9
2018-12-12T07:30:10.277Z,2.9
2018-12-12T07:31:19.502Z,2.9
2018-12-12T07:32:28.694Z,2.9
2018-12-12T07:33:37.906Z,3
2018-12-12T07:34:47.104Z,3
2018-12-12T07:35:59.399Z,3
2018-12-12T07:37:05.588Z,3
2018-12-12T07:38:14.755Z,3
2018-12-12T07:39:23.959Z,2.9
2018-12-12T07:40:33.173Z,2.9
2018-12-12T07:41:42.463Z,2.9
2018-12-12T07:42:52.315Z,2.8
2018-12-12T07:44:01.230Z,2.9
2018-12-12T07:45:10.033Z,2.9
2018-12-12T07:46:19.228Z,2.9
2018-12-12T07:47:28.447Z,2.9
2018-12-12T07:48:37.675Z,3
2018-12-12T07:49:46.887Z,2.9
2018-12-12T07:50:56.666Z,2.9
2018-12-12T07:52:05.360Z,3
2018-12-12T07:53:14.571Z,3
2018-12-12T07:54:23.721Z,3
2018-12-12T07:55:33.454Z,3
2018-12-12T07:56:42.127Z,3.1
2018-12-12T07:57:51.404Z,3.1
2018-12-12T07:59:00.585Z,3.1
2018-12-12T08:00:09.777Z,3.1
2018-12-12T08:01:19.010Z,3.1
2018-12-12T08:02:28.214Z,3.1
2018-12-12T08:03:37.431Z,3.1
2018-12-12T08:04:46.793Z,3.2
2018-12-12T08:05:56.594Z,3.2
2018-12-12T08:07:05.237Z,3.2
2018-12-12T08:08:14.336Z,3.2
2018-12-12T08:09:23.497Z,3.2
2018-12-12T08:10:32.965Z,3.3
2018-12-12T08:11:42.100Z,3.3
2018-12-12T08:12:51.209Z,3.2
2018-12-12T08:14:00.512Z,3.3
2018-12-12T08:15:09.603Z,3.3
2018-12-12T08:16:18.797Z,3.3
2018-12-12T08:17:28.027Z,3.4
2018-12-12T08:18:37.245Z,3.4
2018-12-12T08:19:46.479Z,3.4
2018-12-12T08:20:55.727Z,3.4
2018-12-12T08:22:06.275Z,3.4
2018-12-12T08:23:14.169Z,3.4
2018-12-12T08:24:23.340Z,3.5
2018-12-12T08:25:32.664Z,3.5
2018-12-12T08:26:41.801Z,3.5
2018-12-12T08:27:51.456Z,3.5
2018-12-12T08:29:00.277Z,3.5
2018-12-12T08:30:09.572Z,3.5
2018-12-12T08:31:18.820Z,3.5
2018-12-12T08:32:27.974Z,3.5
2018-12-12T08:33:37.232Z,3.5
2018-12-12T08:34:46.430Z,3.5
2018-12-12T08:35:55.568Z,3.5
2018-12-12T08:37:04.791Z,3.6
2018-12-12T08:38:14.021Z,3.5
2018-12-12T08:39:23.240Z,3.5
2018-12-12T08:40:32.523Z,3.6
2018-12-12T08:41:41.689Z,3.5
2018-12-12T08:42:51.027Z,3.6
2018-12-12T08:44:00.233Z,3.6
2018-12-12T08:45:09.377Z,3.6
2018-12-12T08:46:18.617Z,3.6
2018-12-12T08:47:27.833Z,3.6
2018-12-12T08:48:37.062Z,3.6
2018-12-12T08:49:46.296Z,3.7
2018-12-12T08:50:55.519Z,3.7
2018-12-12T08:52:04.837Z,3.7
2018-12-12T08:53:14.026Z,3.7
2018-12-12T08:54:23.218Z,3.7
2018-12-12T08:55:32.442Z,3.7
2018-12-12T08:56:41.682Z,3.8
2018-12-12T08:57:50.887Z,3.8
2018-12-12T08:59:00.138Z,3.8
2018-12-12T09:00:09.360Z,3.8
2018-12-12T09:01:18.595Z,3.8
2018-12-12T09:02:27.852Z,3.8
2018-12-12T09:03:37.058Z,3.8
2018-12-12T09:04:46.399Z,3.8
2018-12-12T09:05:55.598Z,3.8
2018-12-12T09:07:04.752Z,3.8
2018-12-12T09:08:13.994Z,3.9
2018-12-12T09:09:23.238Z,3.9
2018-12-12T09:10:32.452Z,3.9
2018-12-12T09:11:41.699Z,3.9
2018-12-12T09:12:50.937Z,4
2018-12-12T09:14:00.244Z,4
2018-12-12T09:15:09.425Z,4
2018-12-12T09:16:18.658Z,4.1
2018-12-12T09:17:27.882Z,4.1
2018-12-12T09:18:37.163Z,4.1
2018-12-12T09:19:46.367Z,4.1
2018-12-12T09:20:55.849Z,4.1
2018-12-12T09:22:04.848Z,4.1
2018-12-12T09:23:14.112Z,4
2018-12-12T09:24:23.336Z,4.1
2018-12-12T09:25:32.582Z,4.2
2018-12-12T09:26:41.882Z,4.1
2018-12-12T09:27:51.218Z,4.1
2018-12-12T09:29:00.323Z,4.2
2018-12-12T09:30:09.560Z,4.1
2018-12-12T09:31:18.813Z,4.2
2018-12-12T09:32:28.048Z,4.2
2018-12-12T09:33:37.301Z,4.2
2018-12-12T09:34:46.546Z,4.3
2018-12-12T09:35:55.975Z,4.3
2018-12-12T09:37:05.053Z,4.4
2018-12-12T09:38:14.276Z,4.4
2018-12-12T09:39:23.536Z,4.4
2018-12-12T09:40:32.779Z,4.4
2018-12-12T09:41:42.103Z,4.5
2018-12-12T09:42:51.324Z,4.5
2018-12-12T09:44:00.533Z,4.4
2018-12-12T09:45:09.803Z,4.5
2018-12-12T09:46:19.035Z,4.5
2018-12-12T09:47:28.286Z,4.5
2018-12-12T09:48:37.540Z,4.6
2018-12-12T09:49:46.888Z,4.5
2018-12-12T09:50:56.060Z,4.6
2018-12-12T09:52:05.377Z,4.7
2018-12-12T09:53:14.581Z,4.7
2018-12-12T09:54:23.822Z,4.6
2018-12-12T09:55:33.079Z,4.6
2018-12-12T09:56:42.449Z,4.7
2018-12-12T09:57:51.583Z,4.8
2018-12-12T09:59:00.861Z,4.7
2018-12-12T10:00:10.270Z,4.7
2018-12-12T10:01:19.523Z,4.7
2018-12-12T10:02:28.614Z,4.7
2018-12-12T10:03:37.893Z,4.7
2018-12-12T10:04:47.150Z,4.7
2018-12-12T10:05:56.437Z,4.8
2018-12-12T10:07:05.675Z,4.8
2018-12-12T10:08:14.926Z,4.7
2018-12-12T10:09:24.187Z,4.8
2018-12-12T10:10:33.458Z,4.8
2018-12-12T10:11:42.715Z,4.8
2018-12-12T10:12:52.067Z,4.8
2018-12-12T10:14:01.240Z,4.8
2018-12-12T10:15:10.494Z,4.8
2018-12-12T10:16:19.785Z,4.6
2018-12-12T10:17:28.994Z,4.6
2018-12-12T10:18:39.915Z,4.7
2018-12-12T10:19:49.079Z,4.7
2018-12-12T10:20:58.347Z,4.7
2018-12-12T10:22:07.611Z,4.8
2018-12-12T10:23:16.890Z,4.8
2018-12-12T10:24:26.127Z,4.8
2018-12-12T10:25:35.434Z,4.7
2018-12-12T10:26:44.675Z,4.8
2018-12-12T10:27:53.915Z,4.9
2018-12-12T10:29:03.758Z,4.9
2018-12-12T10:30:12.455Z,4.9
2018-12-12T10:31:21.711Z,4.9
2018-12-12T10:32:31.285Z,5
2018-12-12T10:33:40.233Z,5
2018-12-12T10:34:49.518Z,4.9
2018-12-12T10:35:58.772Z,4.9
2018-12-12T10:37:08.049Z,5
2018-12-12T10:38:17.304Z,5
2018-12-12T10:39:26.574Z,5.1
2018-12-12T10:40:35.853Z,5.2
2018-12-12T10:41:45.128Z,5.2
2018-12-12T10:42:54.431Z,5.3
2018-12-12T10:44:03.680Z,5.4
2018-12-12T10:45:13.450Z,5.4
2018-12-12T10:46:22.235Z,5.4
2018-12-12T10:47:31.474Z,5.3
2018-12-12T10:48:40.833Z,5.1
2018-12-12T10:49:50.036Z,5.1
2018-12-12T10:50:59.310Z,5.1
2018-12-12T10:52:08.584Z,5.1
2018-12-12T10:53:17.901Z,5.2
2018-12-12T10:54:27.141Z,5.2
2018-12-12T10:55:36.417Z,5.2
2018-12-12T10:56:45.700Z,5.2
2018-12-12T10:57:55.029Z,5.3
2018-12-12T10:59:04.238Z,5.3
2018-12-12T11:00:13.522Z,5.1
2018-12-12T11:01:22.789Z,5.1
2018-12-12T11:02:32.067Z,5.2
2018-12-12T11:03:44.079Z,5.3
2018-12-12T11:04:50.647Z,5.2
2018-12-12T11:05:59.905Z,5.3
2018-12-12T11:07:09.190Z,5
2018-12-12T11:08:18.494Z,5
2018-12-12T11:09:27.763Z,5.1
2018-12-12T11:10:37.022Z,5.2
2018-12-12T11:11:46.357Z,5.1
2018-12-12T11:12:55.574Z,5.1
2018-12-12T11:14:04.853Z,5.2
2018-12-12T11:15:14.141Z,5.1
2018-12-12T11:16:23.412Z,5
2018-12-12T11:17:32.689Z,5.2
2018-12-12T11:18:42.035Z,5.2
2018-12-12T11:19:51.397Z,5.2
2018-12-12T11:21:00.554Z,5.1
2018-12-12T11:22:10.127Z,5.2
2018-12-12T11:23:19.107Z,5.2
2018-12-12T11:24:28.353Z,5
2018-12-12T11:25:37.612Z,5
2018-12-12T11:26:47.031Z,5
2018-12-12T11:27:56.151Z,4.9
2018-12-12T11:29:05.582Z,5.1
2018-12-12T11:30:14.696Z,5
2018-12-12T11:31:23.974Z,5
2018-12-12T11:32:33.270Z,4.9
2018-12-12T11:33:42.534Z,4.8
2018-12-12T11:34:51.788Z,5
2018-12-12T11:36:01.079Z,5.1
2018-12-12T11:37:10.353Z,5.2
2018-12-12T11:38:19.611Z,5.2
2018-12-12T11:39:28.876Z,5.2
2018-12-12T11:40:38.154Z,5.3
2018-12-12T11:41:47.546Z,5.2
2018-12-12T11:42:56.713Z,5.1
2018-12-12T11:44:05.979Z,5.1
2018-12-12T11:45:15.246Z,4.9
2018-12-12T11:46:24.523Z,4.7
2018-12-12T11:47:33.845Z,4.6
2018-12-12T11:48:43.449Z,4.7
2018-12-12T11:49:52.427Z,4.7
2018-12-12T11:51:01.614Z,4.7
2018-12-12T11:52:10.897Z,4.7
2018-12-12T11:53:20.133Z,4.6
2018-12-12T11:54:29.405Z,4.5
2018-12-12T11:55:38.675Z,4.5
2018-12-12T11:56:47.992Z,4.6
2018-12-12T11:57:57.619Z,4.7
2018-12-12T11:59:06.457Z,4.6
2018-12-12T12:00:15.788Z,4.6
2018-12-12T12:01:25.029Z,4.7
2018-12-12T12:02:35.647Z,4.5
2018-12-12T12:03:43.527Z,4.8
2018-12-12T12:04:52.911Z,4.7
2018-12-12T12:06:02.049Z,4.7
2018-12-12T12:07:11.316Z,4.8
2018-12-12T12:08:20.582Z,4.9
2018-12-12T12:09:29.852Z,5
2018-12-12T12:10:39.146Z,4.9
2018-12-12T12:11:48.381Z,4.7
2018-12-12T12:12:57.682Z,4.8
2018-12-12T12:14:06.926Z,4.9
2018-12-12T12:15:16.185Z,5
2018-12-12T12:16:25.446Z,5
2018-12-12T12:17:34.702Z,4.9
2018-12-12T12:18:43.959Z,4.8
2018-12-12T12:19:53.223Z,4.7
2018-12-12T12:21:02.521Z,4.6
2018-12-12T12:22:11.783Z,4.7
2018-12-12T12:23:21.100Z,4.5
2018-12-12T12:24:30.277Z,4.6
2018-12-12T12:25:39.537Z,4.6
2018-12-12T12:26:48.801Z,4.6
2018-12-12T12:27:58.073Z,4.7
2018-12-12T12:29:07.323Z,4.8
2018-12-12T12:30:16.650Z,4.8
2018-12-12T12:31:25.855Z,4.8
2018-12-12T12:32:35.097Z,4.7
2018-12-12T12:33:44.370Z,4.9
2018-12-12T12:34:53.647Z,5
2018-12-12T12:36:02.933Z,4.9
2018-12-12T12:37:12.150Z,4.9
2018-12-12T12:38:21.488Z,4.8
2018-12-12T12:39:30.680Z,4.7
2018-12-12T12:40:39.971Z,4.6
2018-12-12T12:41:49.205Z,4.5
2018-12-12T12:42:58.472Z,4.5
2018-12-12T12:44:07.728Z,4.5
2018-12-12T12:45:17.003Z,4.4
2018-12-12T12:46:26.238Z,4.4
2018-12-12T12:47:35.544Z,4.4
2018-12-12T12:48:44.782Z,4.4
2018-12-12T12:49:54.014Z,4.4
2018-12-12T12:51:03.316Z,4.4
2018-12-12T12:52:12.539Z,4.3
2018-12-12T12:53:21.800Z,4.3
2018-12-12T12:54:31.039Z,4.3
2018-12-12T12:55:40.323Z,4.3
2018-12-12T12:56:49.545Z,4.2
2018-12-12T12:57:59.192Z,4.3
2018-12-12T12:59:08.056Z,4.4
2018-12-12T13:00:17.302Z,4.5
2018-12-12T13:01:26.569Z,4.6
2018-12-12T13:02:35.845Z,4.8
2018-12-12T13:03:45.086Z,5
2018-12-12T13:04:54.341Z,5
2018-12-12T13:06:03.621Z,5.1
2018-12-12T13:07:12.872Z,5.3
2018-12-12T13:08:22.152Z,5.4
2018-12-12T13:09:31.402Z,5.2
2018-12-12T13:10:40.728Z,5.3
2018-12-12T13:11:50.030Z,5.5
2018-12-12T13:12:59.194Z,5.5
2018-12-12T13:14:08.547Z,5.5
2018-12-12T13:15:17.737Z,5.7
2018-12-12T13:16:27.035Z,5.6
2018-12-12T13:17:36.321Z,5.5
2018-12-12T13:18:45.593Z,5.2
2018-12-12T13:19:54.914Z,5.3
2018-12-12T13:21:04.082Z,5.3
2018-12-12T13:22:13.398Z,5.2
2018-12-12T13:23:22.675Z,5.4
2018-12-12T13:24:31.893Z,5
2018-12-12T13:25:41.204Z,4.9
2018-12-12T13:26:53.285Z,4.9
2018-12-12T13:27:59.759Z,4.9
2018-12-12T13:29:08.976Z,5
2018-12-12T13:30:18.507Z,4.9
2018-12-12T13:31:27.537Z,4.9
2018-12-12T13:32:36.783Z,4.8
2018-12-12T13:33:46.059Z,4.8
2018-12-12T13:34:55.338Z,4.7
2018-12-12T13:36:04.614Z,4.7
2018-12-12T13:37:13.830Z,4.6
2018-12-12T13:38:23.090Z,4.7
2018-12-12T13:39:32.347Z,4.7
2018-12-12T13:40:41.620Z,4.8
2018-12-12T13:41:50.948Z,4.6
2018-12-12T13:43:00.174Z,4.6
2018-12-12T13:44:09.411Z,4.5
2018-12-12T13:45:18.700Z,4.5
2018-12-12T13:46:27.924Z,4.5
2018-12-12T13:47:37.189Z,4.4
2018-12-12T13:48:46.452Z,4.5
2018-12-12T13:49:55.734Z,4.5
2018-12-12T13:51:04.972Z,4.5
2018-12-12T13:52:14.235Z,4.5
2018-12-12T13:53:23.482Z,4.3
2018-12-12T13:54:32.743Z,4.3
2018-12-12T13:55:42.043Z,4.2
2018-12-12T13:56:51.264Z,4.3
2018-12-12T13:58:00.574Z,4.3
2018-12-12T13:59:09.766Z,4.2
2018-12-12T14:00:19.040Z,4.3
2018-12-12T14:01:29.654Z,4.4
2018-12-12T14:02:37.542Z,4.6
2018-12-12T14:03:46.845Z,4.6
2018-12-12T14:04:56.061Z,4.5
2018-12-12T14:06:05.308Z,4.4
2018-12-12T14:07:14.589Z,4.4
2018-12-12T14:08:23.827Z,4.5
2018-12-12T14:09:33.098Z,4.4
2018-12-12T14:10:42.337Z,4.5
2018-12-12T14:11:51.577Z,4.5
2018-12-12T14:13:00.892Z,4.6
2018-12-12T14:14:10.096Z,4.6
2018-12-12T14:15:19.350Z,4.6
2018-12-12T14:16:28.600Z,4.5
2018-12-12T14:17:37.844Z,4.6
2018-12-12T14:18:47.114Z,4.5
2018-12-12T14:19:56.359Z,4.4
2018-12-12T14:21:05.625Z,4.5
2018-12-12T14:22:14.867Z,4.4
2018-12-12T14:23:24.125Z,4.4
2018-12-12T14:24:33.371Z,4.5
2018-12-12T14:25:42.645Z,4.4
2018-12-12T14:26:51.894Z,4.4
2018-12-12T14:28:01.129Z,4.3
2018-12-12T14:29:10.378Z,4.2
2018-12-12T14:30:19.827Z,4.1
2018-12-12T14:31:29.070Z,4.1
2018-12-12T14:32:38.187Z,4.1
2018-12-12T14:33:47.469Z,4
2018-12-12T14:34:56.979Z,3.9
2018-12-12T14:36:05.871Z,3.9
2018-12-12T14:37:15.101Z,3.9
2018-12-12T14:38:24.349Z,3.8
2018-12-12T14:39:33.597Z,3.7
2018-12-12T14:40:42.826Z,3.7
2018-12-12T14:41:52.095Z,3.7
2018-12-12T14:43:01.306Z,3.6
2018-12-12T14:44:10.541Z,3.6
2018-12-12T14:45:19.789Z,3.6
2018-12-12T14:46:29.055Z,3.6
2018-12-12T14:47:38.261Z,3.6
2018-12-12T14:48:47.491Z,3.5
2018-12-12T14:49:56.755Z,3.5
2018-12-12T14:51:05.954Z,3.5
2018-12-12T14:52:15.189Z,3.4
2018-12-12T14:53:24.410Z,3.4
2018-12-12T14:54:33.653Z,3.4
2018-12-12T14:55:42.875Z,3.4
2018-12-12T14:56:52.139Z,3.4
2018-12-12T14:58:01.416Z,3.4
2018-12-12T14:59:10.570Z,3.3
2018-12-12T15:00:19.812Z,3.3
2018-12-12T15:01:29.018Z,3.3
2018-12-12T15:02:38.253Z,3.3
2018-12-12T15:03:47.473Z,3.3
2018-12-12T15:04:56.714Z,3.3
2018-12-12T15:06:05.944Z,3.3
2018-12-12T15:07:15.156Z,3.2
2018-12-12T15:08:24.364Z,3.2
2018-12-12T15:09:33.652Z,3.2
2018-12-12T15:10:42.984Z,3.3
2018-12-12T15:11:52.040Z,3.2
2018-12-12T15:13:01.259Z,3.3
2018-12-12T15:14:10.491Z,3.2
2018-12-12T15:15:19.760Z,3.2
2018-12-12T15:16:28.922Z,3.2
2018-12-12T15:17:38.157Z,3.2
2018-12-12T15:18:47.362Z,3.1
2018-12-12T15:19:56.631Z,3.2
2018-12-12T15:21:05.804Z,3.2
2018-12-12T15:22:15.016Z,3.2
2018-12-12T15:23:24.255Z,3.2
2018-12-12T15:24:33.457Z,3.2
2018-12-12T15:25:42.681Z,3.2
2018-12-12T15:26:51.899Z,3.2
2018-12-12T15:28:01.132Z,3.1
2018-12-12T15:29:10.346Z,3.2
2018-12-12T15:30:19.596Z,3.2
2018-12-12T15:31:28.786Z,3.1
2018-12-12T15:32:38.074Z,3.1
2018-12-12T15:33:47.225Z,3.1
2018-12-12T15:34:56.434Z,3.1
2018-12-12T15:36:05.649Z,3.1
2018-12-12T15:37:14.874Z,3.1
2018-12-12T15:38:24.093Z,3
2018-12-12T15:39:33.344Z,3.1
2018-12-12T15:40:42.538Z,3.1
2018-12-12T15:41:51.732Z,3.1
2018-12-12T15:43:00.945Z,3.1
2018-12-12T15:44:10.179Z,3.1
2018-12-12T15:45:19.385Z,3.1
2018-12-12T15:46:28.737Z,3.1
2018-12-12T15:47:37.825Z,3.1
2018-12-12T15:48:47.042Z,3.1
2018-12-12T15:49:56.325Z,3.1
2018-12-12T15:51:05.473Z,3.1
2018-12-12T15:52:14.697Z,3.1
2018-12-12T15:53:23.934Z,3
2018-12-12T15:54:33.134Z,3
2018-12-12T15:55:42.347Z,3.1
2018-12-12T15:56:51.556Z,3.1
2018-12-12T15:58:00.833Z,3
2018-12-12T15:59:09.993Z,3.1